Time;durP1;ratioP1;P1;durP2;ratioP2;P2;SDS_P1;SDS_P2;PMS_P1;PMS_P2;Temp;Humidity;BMP_temperature;BMP_pressure;BME280_temperature;BME280_humidity;BME280_pressure;Samples;Min_cycle;Max_cycle;Signal;HPM_P1;HPM_P2
2021/11/03 00:00:56;;;;;;;165.57;48.33;;;8.50;99.90;;;;;;6307279;22;20443;-74
2021/11/03 00:03:25;;;;;;;136.40;39.67;;;8.50;99.90;;;;;;6309018;22;20431;-74
2021/11/03 00:05:53;;;;;;;187.27;46.20;;;8.50;99.90;;;;;;6319524;22;20942;-74
2021/11/03 00:08:24;;;;;;;111.40;34.93;;;8.50;99.90;;;;;;6307313;22;20759;-75
2021/11/03 00:10:52;;;;;;;194.03;48.10;;;8.50;99.90;;;;;;6307069;22;20460;-74
2021/11/03 00:13:24;;;;;;;190.23;44.77;;;8.50;99.90;;;;;;6319478;22;20435;-74
2021/11/03 00:15:54;;;;;;;205.57;47.33;;;8.50;99.90;;;;;;6307152;22;20410;-74
2021/11/03 00:18:23;;;;;;;145.37;37.30;;;8.50;99.90;;;;;;6309057;22;20395;-75
2021/11/03 00:20:51;;;;;;;150.03;42.90;;;8.50;99.90;;;;;;6306986;22;20525;-74
2021/11/03 00:23:19;;;;;;;116.20;32.33;;;8.50;99.90;;;;;;6318865;22;20430;-73
2021/11/03 00:25:47;;;;;;;177.60;51.93;;;8.50;99.90;;;;;;6307138;22;20407;-74
2021/11/03 00:28:18;;;;;;;136.57;37.63;;;8.50;99.90;;;;;;6307068;22;20419;-74
2021/11/03 00:30:50;;;;;;;113.83;32.00;;;8.50;99.90;;;;;;6288162;22;20891;-74
2021/11/03 00:33:19;;;;;;;191.40;41.60;;;8.50;99.90;;;;;;6277219;22;20407;-74
2021/11/03 00:35:51;;;;;;;135.93;43.73;;;8.60;99.90;;;;;;6276057;22;20417;-74
2021/11/03 00:38:20;;;;;;;199.07;48.23;;;8.50;99.90;;;;;;6275902;22;20420;-74
2021/11/03 00:40:49;;;;;;;186.33;44.10;;;8.50;99.90;;;;;;6275698;22;20435;-74
2021/11/03 00:43:18;;;;;;;193.00;48.30;;;8.50;99.90;;;;;;6275837;22;20439;-74
2021/11/03 00:45:48;;;;;;;111.90;33.70;;;8.50;99.90;;;;;;6275883;22;20447;-74
2021/11/03 00:48:17;;;;;;;118.83;32.83;;;8.50;99.90;;;;;;6275802;22;20474;-74
2021/11/03 00:50:46;;;;;;;179.77;42.03;;;8.50;99.90;;;;;;6287663;22;20511;-74
2021/11/03 00:53:15;;;;;;;203.47;48.93;;;8.50;99.90;;;;;;6276412;22;20500;-75
2021/11/03 00:55:44;;;;;;;199.50;45.57;;;8.50;99.90;;;;;;6275924;22;20467;-74
2021/11/03 00:58:13;;;;;;;202.60;47.77;;;8.50;99.90;;;;;;6287582;22;20405;-75
2021/11/03 01:00:43;;;;;;;216.37;43.07;;;8.50;99.90;;;;;;6275638;22;20429;-75
2021/11/03 01:03:15;;;;;;;144.37;36.93;;;8.50;99.90;;;;;;6275599;22;20524;-75
2021/11/03 01:05:44;;;;;;;162.03;38.83;;;8.50;99.90;;;;;;6287316;22;20388;-74
2021/11/03 01:08:15;;;;;;;95.43;36.17;;;8.40;99.90;;;;;;6287526;22;20387;-74
2021/11/03 01:10:48;;;;;;;225.50;47.50;;;8.40;99.90;;;;;;6275615;22;20745;-74
2021/11/03 01:13:18;;;;;;;107.40;36.70;;;8.40;99.90;;;;;;6275743;22;20405;-74
2021/11/03 01:15:47;;;;;;;141.33;46.57;;;8.40;99.90;;;;;;6287621;22;20446;-74
2021/11/03 01:18:17;;;;;;;113.67;34.03;;;8.40;99.90;;;;;;6275602;22;20447;-75
2021/11/03 01:20:46;;;;;;;132.63;33.13;;;8.40;99.90;;;;;;6277033;22;20428;-74
2021/11/03 01:23:14;;;;;;;160.53;39.43;;;8.40;99.90;;;;;;6275457;22;20976;-74
2021/11/03 01:25:43;;;;;;;154.87;44.73;;;8.40;99.90;;;;;;6287191;22;20400;-74
2021/11/03 01:28:11;;;;;;;204.20;47.43;;;8.30;99.90;;;;;;6275422;22;20458;-74
2021/11/03 01:30:39;;;;;;;115.63;39.57;;;8.30;99.90;;;;;;6275286;22;20490;-74
2021/11/03 01:33:07;;;;;;;173.23;39.13;;;8.30;99.90;;;;;;6275494;22;20462;-74
2021/11/03 01:35:38;;;;;;;169.33;43.87;;;8.30;99.90;;;;;;6275565;22;20408;-75
2021/11/03 01:38:06;;;;;;;132.27;40.97;;;8.30;99.90;;;;;;6275521;22;20458;-74
2021/11/03 01:40:43;;;;;;;198.40;55.73;;;8.20;99.90;;;;;;6276018;22;20432;-74
2021/11/03 01:43:18;;;;;;;122.60;39.03;;;8.20;99.90;;;;;;6275284;22;20446;-75
2021/11/03 01:45:47;;;;;;;122.33;43.77;;;8.20;99.90;;;;;;6275090;22;20407;-74
2021/11/03 01:48:16;;;;;;;160.07;42.70;;;8.20;99.90;;;;;;6275352;22;20419;-74
2021/11/03 01:50:54;;;;;;;190.80;45.27;;;8.20;99.90;;;;;;6275116;22;20439;-74
2021/11/03 01:53:28;;;;;;;204.57;51.73;;;8.20;99.90;;;;;;6275205;22;20431;-74
2021/11/03 01:56:01;;;;;;;131.67;35.53;;;8.20;99.90;;;;;;6275345;22;20404;-75
2021/11/03 01:58:36;;;;;;;232.10;47.43;;;8.20;99.90;;;;;;6275495;22;20412;-74
2021/11/03 02:01:04;;;;;;;204.03;49.67;;;8.20;99.90;;;;;;6275188;22;20438;-74
2021/11/03 02:03:34;;;;;;;154.07;48.47;;;8.20;99.90;;;;;;6275277;22;20434;-74
2021/11/03 02:06:09;;;;;;;143.77;44.80;;;8.20;99.90;;;;;;6275365;22;20934;-74
2021/11/03 02:08:41;;;;;;;165.93;46.03;;;8.30;99.90;;;;;;6275823;22;20470;-73
2021/11/03 02:11:12;;;;;;;228.20;50.93;;;8.20;99.90;;;;;;6275254;22;20444;-74
2021/11/03 02:13:42;;;;;;;133.80;50.47;;;8.30;99.90;;;;;;6275201;22;20416;-75
2021/11/03 02:16:13;;;;;;;179.77;46.63;;;8.30;99.90;;;;;;6275354;22;20422;-74
2021/11/03 02:18:43;;;;;;;202.77;50.97;;;8.30;99.90;;;;;;6275287;22;20412;-74
2021/11/03 02:21:19;;;;;;;162.17;46.97;;;8.30;99.90;;;;;;6275232;22;20441;-74
2021/11/03 02:24:04;;;;;;;164.33;49.17;;;8.30;99.90;;;;;;6274991;22;20435;-74
2021/11/03 02:26:37;;;;;;;218.37;42.67;;;8.30;99.90;;;;;;6275482;22;20408;-74
2021/11/03 02:29:07;;;;;;;187.40;51.20;;;8.40;99.90;;;;;;6275277;22;20412;-75
2021/11/03 02:31:38;;;;;;;132.47;45.67;;;8.40;99.90;;;;;;6275274;22;20411;-74
2021/11/03 02:34:10;;;;;;;130.37;38.90;;;8.40;99.90;;;;;;6275115;22;20890;-74
2021/11/03 02:36:52;;;;;;;110.70;44.30;;;8.40;99.90;;;;;;6274809;22;20416;-73
2021/11/03 02:39:29;;;;;;;143.63;53.97;;;8.40;99.90;;;;;;6276858;22;20411;-74
2021/11/03 02:42:00;;;;;;;117.07;45.03;;;8.40;99.90;;;;;;6277124;22;20752;-74
2021/11/03 02:44:30;;;;;;;187.67;50.17;;;8.40;99.90;;;;;;6277132;22;20771;-74
2021/11/03 02:46:59;;;;;;;106.73;47.23;;;8.40;99.90;;;;;;6277415;22;20436;-74
2021/11/03 02:49:27;;;;;;;148.70;53.67;;;8.40;99.90;;;;;;6277051;22;20438;-74
2021/11/03 02:51:56;;;;;;;198.10;47.73;;;8.40;99.90;;;;;;6276571;22;20434;-74
2021/11/03 02:54:24;;;;;;;116.20;36.50;;;8.40;99.90;;;;;;6276961;22;20937;-75
2021/11/03 02:56:55;;;;;;;187.53;55.57;;;8.50;99.90;;;;;;6276874;22;20416;-74
2021/11/03 02:59:26;;;;;;;229.27;59.80;;;8.50;99.90;;;;;;6277835;22;20416;-74
2021/11/03 03:01:59;;;;;;;155.63;55.97;;;8.50;99.90;;;;;;6276996;22;20407;-74
2021/11/03 03:04:32;;;;;;;155.87;49.47;;;8.50;99.90;;;;;;6277910;22;20489;-75
2021/11/03 03:07:04;;;;;;;151.07;43.13;;;8.50;99.90;;;;;;6276829;22;20494;-74
2021/11/03 03:09:32;;;;;;;135.20;44.33;;;8.50;99.90;;;;;;6276683;22;20950;-74
2021/11/03 03:12:05;;;;;;;157.27;44.47;;;8.50;99.90;;;;;;6276777;22;20918;-74
2021/11/03 03:14:42;;;;;;;213.50;50.80;;;8.50;99.90;;;;;;6276645;22;20910;-74
2021/11/03 03:17:15;;;;;;;160.90;50.70;;;8.50;99.90;;;;;;6277159;22;20439;-73
2021/11/03 03:19:44;;;;;;;204.30;43.63;;;8.50;99.90;;;;;;6276792;22;20439;-74
2021/11/03 03:22:17;;;;;;;193.70;49.67;;;8.50;99.90;;;;;;6276674;22;20480;-75
2021/11/03 03:24:50;;;;;;;121.13;35.70;;;8.50;99.90;;;;;;6276671;22;20436;-74
2021/11/03 03:27:24;;;;;;;150.83;40.17;;;8.50;99.90;;;;;;6276828;22;20727;-74
2021/11/03 03:29:53;;;;;;;127.47;38.27;;;8.50;99.90;;;;;;6276921;22;20764;-75
2021/11/03 03:32:23;;;;;;;168.13;40.23;;;8.50;99.90;;;;;;6276799;22;20416;-74
2021/11/03 03:34:53;;;;;;;155.23;36.17;;;8.50;99.90;;;;;;6276612;22;20412;-74
2021/11/03 03:37:24;;;;;;;143.20;38.93;;;8.50;99.90;;;;;;6276722;22;20416;-75
2021/11/03 03:39:54;;;;;;;153.10;33.53;;;8.50;99.90;;;;;;6276403;22;20527;-74
2021/11/03 03:42:22;;;;;;;165.23;36.40;;;8.50;99.90;;;;;;6276602;22;20830;-74
2021/11/03 03:44:51;;;;;;;149.20;44.63;;;8.50;99.90;;;;;;6276467;22;20439;-74
2021/11/03 03:47:22;;;;;;;159.47;41.07;;;8.50;99.90;;;;;;6276430;22;20511;-74
2021/11/03 03:49:54;;;;;;;182.63;40.90;;;8.50;99.90;;;;;;6276323;22;20442;-74
2021/11/03 03:52:22;;;;;;;208.70;51.10;;;8.50;99.90;;;;;;6275877;22;20965;-74
2021/11/03 03:54:51;;;;;;;158.50;39.60;;;8.50;99.90;;;;;;6276353;22;20408;-74
2021/11/03 03:57:19;;;;;;;132.03;35.23;;;8.50;99.90;;;;;;6276499;22;20415;-74
2021/11/03 03:59:47;;;;;;;170.67;37.83;;;8.50;99.90;;;;;;6276303;22;20444;-74
2021/11/03 04:02:17;;;;;;;153.10;36.13;;;8.50;99.90;;;;;;6288037;22;20400;-73
2021/11/03 04:04:48;;;;;;;143.40;40.30;;;8.50;99.90;;;;;;6276256;22;20477;-74
2021/11/03 04:07:16;;;;;;;167.63;42.47;;;8.50;99.90;;;;;;6276274;22;20831;-75
2021/11/03 04:09:44;;;;;;;152.80;40.10;;;8.50;99.90;;;;;;6276252;22;20494;-74
2021/11/03 04:12:15;;;;;;;220.37;52.10;;;8.50;99.90;;;;;;6276371;22;20709;-74
2021/11/03 04:14:43;;;;;;;124.50;44.10;;;8.50;99.90;;;;;;6276117;22;20405;-74
2021/11/03 04:17:11;;;;;;;156.60;46.17;;;8.50;99.90;;;;;;6276604;22;20760;-74
2021/11/03 04:19:39;;;;;;;142.97;44.13;;;8.50;99.90;;;;;;6276047;22;20436;-74
2021/11/03 04:22:09;;;;;;;218.40;58.00;;;8.50;99.90;;;;;;6275942;22;20422;-74
2021/11/03 04:24:43;;;;;;;187.77;47.30;;;8.50;99.90;;;;;;6275965;22;20435;-73
2021/11/03 04:27:12;;;;;;;222.90;54.23;;;8.50;99.90;;;;;;6276060;22;20426;-74
2021/11/03 04:29:41;;;;;;;166.50;54.43;;;8.50;99.90;;;;;;6276081;22;20470;-74
2021/11/03 04:32:14;;;;;;;203.23;52.97;;;8.50;99.90;;;;;;6276092;22;20403;-74
2021/11/03 04:34:43;;;;;;;114.67;41.50;;;8.60;99.90;;;;;;6276191;22;20417;-74
2021/11/03 04:37:13;;;;;;;203.50;56.37;;;8.50;99.90;;;;;;6275967;22;20949;-75
2021/11/03 04:39:42;;;;;;;125.63;49.73;;;8.50;99.90;;;;;;6275959;22;20436;-74
2021/11/03 04:42:11;;;;;;;203.67;51.10;;;8.50;99.90;;;;;;6275787;22;20431;-74
2021/11/03 04:44:41;;;;;;;186.87;51.83;;;8.50;99.90;;;;;;6275936;22;20555;-75
2021/11/03 04:47:11;;;;;;;147.63;45.77;;;8.50;99.90;;;;;;6275850;22;20439;-74
2021/11/03 04:49:41;;;;;;;171.53;49.07;;;8.50;99.90;;;;;;6275828;22;20440;-75
2021/11/03 04:52:09;;;;;;;104.83;41.93;;;8.50;99.90;;;;;;6275801;22;20432;-75
2021/11/03 04:54:39;;;;;;;149.67;49.27;;;8.50;99.90;;;;;;6287704;22;20446;-74
2021/11/03 04:57:08;;;;;;;172.97;47.70;;;8.50;99.90;;;;;;6275825;22;20410;-75
2021/11/03 04:59:37;;;;;;;144.53;45.43;;;8.50;99.90;;;;;;6275336;22;20997;-74
2021/11/03 05:02:06;;;;;;;162.50;48.13;;;8.50;99.90;;;;;;6275745;22;20412;-74
2021/11/03 05:04:35;;;;;;;175.33;52.60;;;8.40;99.90;;;;;;6275735;22;20442;-74
2021/11/03 05:07:04;;;;;;;202.30;56.10;;;8.40;99.90;;;;;;6275543;22;20420;-74
2021/11/03 05:09:32;;;;;;;150.37;49.07;;;8.40;99.90;;;;;;6275720;22;20976;-74
2021/11/03 05:12:02;;;;;;;140.27;43.00;;;8.40;99.90;;;;;;6275804;22;20412;-74
2021/11/03 05:14:33;;;;;;;213.67;55.33;;;8.30;99.90;;;;;;6275722;22;20413;-75
2021/11/03 05:17:01;;;;;;;144.27;46.57;;;8.30;99.90;;;;;;6275696;22;20972;-74
2021/11/03 05:19:32;;;;;;;179.93;51.77;;;8.30;99.90;;;;;;6275648;22;20436;-74
2021/11/03 05:22:20;;;;;;;166.17;53.77;;;8.30;99.90;;;;;;6275416;22;20423;-73
2021/11/03 05:24:48;;;;;;;124.10;47.50;;;8.30;99.90;;;;;;6275792;22;20440;-74
2021/11/03 05:27:21;;;;;;;180.47;51.33;;;8.30;99.90;;;;;;6288186;22;20383;-74
2021/11/03 05:29:50;;;;;;;132.67;47.73;;;8.30;99.90;;;;;;6275500;22;20514;-74
2021/11/03 05:32:18;;;;;;;255.77;56.07;;;8.20;99.90;;;;;;6275583;22;20407;-74
2021/11/03 05:34:47;;;;;;;203.77;52.33;;;8.30;99.90;;;;;;6275477;22;20498;-75
2021/11/03 05:37:16;;;;;;;206.87;58.10;;;8.30;99.90;;;;;;6287280;22;20393;-74
2021/11/03 05:39:45;;;;;;;202.00;60.77;;;8.20;99.90;;;;;;6275495;22;20501;-74
2021/11/03 05:42:13;;;;;;;182.53;59.07;;;8.30;99.90;;;;;;6275252;22;20478;-74
2021/11/03 05:44:43;;;;;;;103.13;47.53;;;8.30;99.90;;;;;;6287295;22;20423;-75
2021/11/03 05:47:20;;;;;;;127.00;53.87;;;8.30;99.90;;;;;;6287893;22;20445;-74
2021/11/03 05:49:49;;;;;;;197.43;51.50;;;8.30;99.90;;;;;;6287226;22;20510;-75
2021/11/03 05:52:18;;;;;;;210.53;63.47;;;8.30;99.90;;;;;;6274782;22;20424;-74
2021/11/03 05:54:46;;;;;;;135.50;46.90;;;8.30;99.90;;;;;;6275459;22;20474;-75
2021/11/03 05:57:22;;;;;;;192.33;56.73;;;8.30;99.90;;;;;;6287164;22;20871;-74
2021/11/03 05:59:53;;;;;;;110.37;49.97;;;8.20;99.90;;;;;;6275021;22;20432;-74
2021/11/03 06:02:22;;;;;;;161.67;55.83;;;8.30;99.90;;;;;;6287186;22;20434;-75
2021/11/03 06:04:50;;;;;;;141.43;46.63;;;8.20;99.90;;;;;;6286922;22;20428;-74
2021/11/03 06:07:21;;;;;;;154.53;49.27;;;8.20;99.90;;;;;;6274872;22;20894;-73
2021/11/03 06:09:55;;;;;;;211.10;57.43;;;8.20;99.90;;;;;;6276537;22;20922;-74
2021/11/03 06:12:23;;;;;;;94.43;45.47;;;8.20;99.90;;;;;;6276995;22;20750;-74
2021/11/03 06:14:53;;;;;;;138.57;47.00;;;8.20;99.90;;;;;;6277395;22;20411;-74
2021/11/03 06:17:21;;;;;;;124.53;48.93;;;8.20;99.90;;;;;;6277250;22;20445;-74
2021/11/03 06:19:49;;;;;;;225.27;57.37;;;8.20;99.90;;;;;;6277270;22;20487;-74
2021/11/03 06:22:18;;;;;;;205.73;62.60;;;8.20;99.90;;;;;;6277490;22;20903;-74
2021/11/03 06:24:53;;;;;;;152.33;53.37;;;8.20;99.90;;;;;;6276819;22;20503;-74
2021/11/03 06:27:23;;;;;;;279.80;67.27;;;8.20;99.90;;;;;;6288290;22;20403;-74
2021/11/03 06:29:51;;;;;;;166.37;58.67;;;8.20;99.90;;;;;;6275305;22;20497;-74
2021/11/03 06:32:20;;;;;;;258.90;60.40;;;8.20;99.90;;;;;;6275319;22;20823;-74
2021/11/03 06:34:48;;;;;;;214.63;66.10;;;8.20;99.90;;;;;;6275664;22;20420;-74
2021/11/03 06:37:17;;;;;;;140.13;48.50;;;8.20;99.90;;;;;;6287567;22;20495;-74
2021/11/03 06:39:45;;;;;;;172.30;56.33;;;8.20;99.90;;;;;;6275631;22;20439;-74
2021/11/03 06:42:13;;;;;;;204.17;60.90;;;8.20;99.90;;;;;;6276196;22;20419;-74
2021/11/03 06:44:41;;;;;;;217.90;64.50;;;8.20;99.90;;;;;;6278767;22;20891;-75
2021/11/03 06:47:10;;;;;;;169.50;64.30;;;8.20;99.90;;;;;;6276911;22;20498;-74
2021/11/03 06:49:39;;;;;;;156.60;56.83;;;8.20;99.90;;;;;;6276904;22;20830;-74
2021/11/03 06:52:10;;;;;;;170.53;53.83;;;8.20;99.90;;;;;;6276761;22;20788;-75
2021/11/03 06:54:38;;;;;;;228.63;60.00;;;8.20;99.90;;;;;;6277178;22;20431;-75
2021/11/03 06:57:07;;;;;;;209.00;71.13;;;8.20;99.90;;;;;;6277021;22;20410;-74
2021/11/03 06:59:43;;;;;;;170.50;55.23;;;8.20;99.90;;;;;;6288638;22;20457;-75
2021/11/03 07:02:16;;;;;;;119.43;53.27;;;8.20;99.90;;;;;;6276999;22;20428;-74
2021/11/03 07:04:46;;;;;;;193.17;54.57;;;8.20;99.90;;;;;;6276873;22;20411;-74
2021/11/03 07:07:14;;;;;;;257.70;67.70;;;8.30;99.90;;;;;;6278669;22;20771;-75
2021/11/03 07:09:42;;;;;;;218.03;54.00;;;8.30;99.90;;;;;;6276642;22;20519;-75
2021/11/03 07:12:11;;;;;;;144.50;57.17;;;8.20;99.90;;;;;;6278256;22;20910;-75
2021/11/03 07:14:39;;;;;;;164.70;57.63;;;8.20;99.90;;;;;;6278253;22;20407;-75
2021/11/03 07:17:11;;;;;;;220.10;65.83;;;8.30;99.90;;;;;;6278780;22;20498;-74
2021/11/03 07:19:40;;;;;;;147.40;58.37;;;8.30;99.90;;;;;;6288900;22;20910;-74
2021/11/03 07:22:10;;;;;;;167.03;63.03;;;8.30;99.90;;;;;;6276953;22;20472;-75
2021/11/03 07:24:39;;;;;;;105.53;46.97;;;8.30;99.90;;;;;;6289088;22;20463;-75
2021/11/03 07:27:10;;;;;;;169.27;60.13;;;8.30;99.90;;;;;;6276821;22;20779;-75
2021/11/03 07:29:41;;;;;;;132.37;54.83;;;8.30;99.90;;;;;;6276656;22;20485;-74
2021/11/03 07:32:10;;;;;;;225.90;64.03;;;8.30;99.90;;;;;;6277870;22;20446;-74
2021/11/03 07:34:38;;;;;;;188.83;62.57;;;8.30;99.90;;;;;;6278167;22;20905;-74
2021/11/03 07:37:08;;;;;;;174.57;67.80;;;8.30;99.90;;;;;;6278480;22;20412;-74
2021/11/03 07:39:37;;;;;;;173.23;59.37;;;8.30;99.90;;;;;;6278063;22;20428;-74
2021/11/03 07:42:06;;;;;;;140.33;62.83;;;8.30;99.90;;;;;;6278407;22;20409;-75
2021/11/03 07:44:39;;;;;;;215.90;66.00;;;8.30;99.90;;;;;;6277002;22;20470;-75
2021/11/03 07:47:07;;;;;;;183.20;59.53;;;8.30;99.90;;;;;;6278299;22;20491;-75
2021/11/03 07:49:35;;;;;;;207.77;62.93;;;8.30;99.90;;;;;;6288616;22;20529;-74
2021/11/03 07:52:05;;;;;;;131.60;59.27;;;8.30;99.90;;;;;;6276431;22;20432;-74
2021/11/03 07:54:35;;;;;;;161.03;58.60;;;8.30;99.90;;;;;;6277928;22;20491;-75
2021/11/03 07:57:03;;;;;;;209.23;59.93;;;8.30;99.90;;;;;;6278784;22;20408;-74
2021/11/03 07:59:32;;;;;;;143.67;52.13;;;8.30;99.90;;;;;;6276315;22;20805;-74
2021/11/03 08:02:00;;;;;;;187.90;65.27;;;8.30;99.90;;;;;;6276180;22;20470;-74
2021/11/03 08:04:30;;;;;;;181.63;59.73;;;8.30;99.90;;;;;;6278223;22;20500;-74
2021/11/03 08:06:58;;;;;;;149.27;60.07;;;8.30;99.90;;;;;;6276098;22;20472;-75
2021/11/03 08:09:26;;;;;;;208.80;71.60;;;8.30;99.90;;;;;;6277394;22;20724;-74
2021/11/03 08:11:58;;;;;;;184.80;58.30;;;8.40;99.90;;;;;;6276316;22;20733;-74
2021/11/03 08:14:30;;;;;;;160.87;56.03;;;8.40;99.90;;;;;;6288438;22;20400;-74
2021/11/03 08:17:01;;;;;;;210.57;63.77;;;8.40;99.90;;;;;;6288456;22;20384;-74
2021/11/03 08:19:38;;;;;;;212.90;65.53;;;8.50;99.90;;;;;;6276251;22;20436;-74
2021/11/03 08:22:07;;;;;;;159.07;62.57;;;8.40;99.90;;;;;;6276325;22;20416;-74
2021/11/03 08:24:35;;;;;;;178.73;67.97;;;8.50;99.90;;;;;;6288018;22;20894;-75
2021/11/03 08:27:06;;;;;;;169.00;61.17;;;8.50;99.90;;;;;;6276232;22;20436;-75
2021/11/03 08:29:38;;;;;;;174.80;64.37;;;8.50;99.90;;;;;;6287936;22;20957;-74
2021/11/03 08:32:10;;;;;;;182.60;64.37;;;8.50;99.90;;;;;;6288176;22;20450;-74
2021/11/03 08:34:39;;;;;;;127.50;57.90;;;8.50;99.90;;;;;;6275517;22;20416;-74
2021/11/03 08:37:12;;;;;;;215.40;63.63;;;8.60;99.90;;;;;;6275861;22;20906;-73
2021/11/03 08:39:44;;;;;;;211.93;66.63;;;8.60;99.90;;;;;;6277290;22;20447;-74
2021/11/03 08:42:14;;;;;;;245.93;69.17;;;8.60;99.90;;;;;;6276328;22;20420;-74
2021/11/03 08:44:42;;;;;;;145.17;56.63;;;8.60;99.90;;;;;;6288802;22;20457;-74
2021/11/03 08:47:11;;;;;;;135.70;56.00;;;8.60;99.90;;;;;;6276029;22;20436;-74
2021/11/03 08:49:42;;;;;;;146.63;58.23;;;8.70;99.90;;;;;;6288142;22;20462;-74
2021/11/03 08:52:11;;;;;;;194.20;58.70;;;8.70;99.90;;;;;;6275926;22;20474;-74
2021/11/03 08:54:40;;;;;;;197.97;66.97;;;8.70;99.90;;;;;;6287845;22;20400;-74
2021/11/03 08:57:24;;;;;;;197.40;59.03;;;8.70;99.90;;;;;;6275827;22;20412;-74
2021/11/03 08:59:55;;;;;;;213.00;57.87;;;8.80;99.90;;;;;;6278691;22;20428;-74
2021/11/03 09:02:25;;;;;;;199.67;60.50;;;8.80;99.90;;;;;;6275733;22;20748;-74
2021/11/03 09:04:54;;;;;;;306.07;75.57;;;8.90;99.90;;;;;;6275836;22;20432;-74
2021/11/03 09:07:22;;;;;;;240.73;70.73;;;8.90;99.90;;;;;;6275613;22;20464;-74
2021/11/03 09:09:50;;;;;;;122.17;58.83;;;8.90;99.90;;;;;;6275504;22;20436;-74
2021/11/03 09:12:19;;;;;;;248.13;67.73;;;9.00;99.90;;;;;;6275758;22;20448;-74
2021/11/03 09:14:49;;;;;;;217.50;68.47;;;9.00;99.90;;;;;;6275532;22;20450;-74
2021/11/03 09:17:18;;;;;;;180.87;62.10;;;9.00;99.90;;;;;;6277597;22;20774;-74
2021/11/03 09:19:46;;;;;;;235.67;54.40;;;9.00;99.90;;;;;;6287348;22;20451;-74
2021/11/03 09:22:15;;;;;;;175.40;67.93;;;9.00;99.90;;;;;;6275494;22;20408;-74
2021/11/03 09:24:43;;;;;;;292.13;68.57;;;9.10;99.90;;;;;;6288101;22;20392;-74
2021/11/03 09:27:16;;;;;;;203.90;58.83;;;9.10;99.90;;;;;;6275411;22;20523;-74
2021/11/03 09:29:46;;;;;;;248.57;69.17;;;9.10;99.90;;;;;;6275484;22;20444;-71
2021/11/03 09:32:18;;;;;;;154.93;54.63;;;9.20;99.90;;;;;;6275484;22;20420;-73
2021/11/03 09:34:48;;;;;;;130.30;47.17;;;9.20;99.90;;;;;;6275315;22;20415;-73
2021/11/03 09:37:21;;;;;;;314.73;73.93;;;9.20;99.90;;;;;;6275405;22;20458;-73
2021/11/03 09:39:52;;;;;;;177.10;57.43;;;9.30;99.90;;;;;;6275364;22;20466;-74
2021/11/03 09:42:23;;;;;;;219.03;66.67;;;9.30;99.90;;;;;;6277459;22;20466;-74
2021/11/03 09:44:53;;;;;;;274.70;61.33;;;9.40;99.90;;;;;;6275454;22;20432;-73
2021/11/03 09:47:25;;;;;;;208.47;63.43;;;9.50;99.90;;;;;;6275065;22;20433;-74
2021/11/03 09:50:00;;;;;;;222.70;60.43;;;9.50;99.90;;;;;;6275271;22;20505;-74
2021/11/03 09:52:30;;;;;;;223.07;53.60;;;9.60;99.90;;;;;;6275201;22;20420;-74
2021/11/03 09:55:07;;;;;;;263.57;61.80;;;9.60;99.90;;;;;;6275410;22;20401;-74
2021/11/03 09:57:50;;;;;;;216.37;64.83;;;9.70;99.90;;;;;;6276278;22;20417;-74
2021/11/03 10:00:26;;;;;;;254.67;62.40;;;9.80;99.90;;;;;;6274459;22;20442;-74
2021/11/03 10:03:12;;;;;;;192.43;53.77;;;9.90;99.90;;;;;;6275365;22;20465;-74
2021/11/03 10:05:48;;;;;;;240.70;60.47;;;9.90;99.90;;;;;;6275625;22;20454;-74
2021/11/03 10:08:18;;;;;;;346.33;65.93;;;10.00;99.90;;;;;;6277719;22;20428;-74
2021/11/03 10:10:52;;;;;;;360.93;72.43;;;10.00;99.90;;;;;;6246187;22;20430;-74
2021/11/03 10:13:24;;;;;;;304.23;68.07;;;10.10;99.90;;;;;;6244900;23;20437;-74
2021/11/03 10:15:54;;;;;;;251.73;59.47;;;10.10;99.90;;;;;;6256349;22;20386;-74
2021/11/03 10:18:26;;;;;;;196.17;50.20;;;10.20;99.90;;;;;;6270246;22;20397;-74
2021/11/03 10:21:14;;;;;;;222.97;59.20;;;10.20;99.90;;;;;;6244542;23;20433;-74
2021/11/03 10:23:51;;;;;;;320.97;62.20;;;10.20;99.90;;;;;;6244583;23;20457;-74
2021/11/03 10:26:21;;;;;;;205.47;51.63;;;10.30;99.90;;;;;;6244657;23;20414;-74
2021/11/03 10:28:51;;;;;;;233.57;58.30;;;10.30;99.90;;;;;;6244610;23;20429;-74
2021/11/03 10:31:27;;;;;;;314.37;71.50;;;10.30;99.90;;;;;;6257213;22;20505;-73
2021/11/03 10:34:03;;;;;;;257.80;51.80;;;10.40;99.90;;;;;;6269982;22;20404;-73
2021/11/03 10:36:41;;;;;;;440.37;83.10;;;10.40;99.90;;;;;;6270213;22;20440;-73
2021/11/03 10:39:16;;;;;;;95.67;55.80;;;10.40;99.90;;;;;;6245925;22;20892;-73
2021/11/03 10:41:53;;;;;;;296.40;62.30;;;10.40;99.90;;;;;;6270020;22;20722;-74
2021/11/03 10:47:25;;;;;;;274.77;73.60;;;10.40;99.90;;;;;;6269144;22;20520;-75
2021/11/03 10:53:18;;;;;;;165.37;43.50;;;10.50;99.90;;;;;;6240422;23;20433;-74
2021/11/03 10:55:59;;;;;;;282.57;64.43;;;10.50;99.90;;;;;;6246469;22;20390;-73
2021/11/03 10:58:29;;;;;;;299.47;58.67;;;10.50;99.90;;;;;;6244804;23;20409;-73
2021/11/03 11:01:05;;;;;;;373.37;72.00;;;10.50;99.90;;;;;;6257810;22;20413;-73
2021/11/03 11:03:38;;;;;;;357.27;80.90;;;10.60;99.90;;;;;;6246322;23;20423;-73
2021/11/03 11:06:21;;;;;;;297.93;64.70;;;10.60;99.90;;;;;;6248129;22;20394;-73
2021/11/03 11:08:55;;;;;;;321.23;66.80;;;10.60;99.90;;;;;;6258160;22;20424;-73
2021/11/03 11:11:28;;;;;;;309.27;65.67;;;10.70;99.90;;;;;;6246099;23;20434;-73
2021/11/03 11:14:02;;;;;;;353.30;72.83;;;10.70;99.90;;;;;;6246208;23;20409;-73
2021/11/03 11:16:39;;;;;;;309.73;65.77;;;10.70;99.90;;;;;;6258071;22;20378;-73
2021/11/03 11:19:20;;;;;;;309.47;73.17;;;10.70;99.90;;;;;;6258282;22;20826;-73
2021/11/03 11:21:55;;;;;;;343.40;94.33;;;10.80;99.90;;;;;;6246087;23;20741;-73
2021/11/03 11:24:31;;;;;;;370.97;85.80;;;10.80;99.90;;;;;;6258234;22;20385;-73
2021/11/03 11:27:11;;;;;;;354.60;77.03;;;10.80;99.90;;;;;;6246091;23;20452;-73
2021/11/03 11:29:46;;;;;;;317.57;71.53;;;10.80;99.90;;;;;;6257971;22;20483;-74
2021/11/03 11:32:30;;;;;;;344.70;88.37;;;10.90;99.90;;;;;;6246055;23;20401;-74
2021/11/03 11:35:12;;;;;;;342.50;79.53;;;10.90;99.90;;;;;;6247742;22;20405;-73
2021/11/03 11:37:52;;;;;;;369.80;85.23;;;10.90;99.90;;;;;;6247863;22;20414;-73
2021/11/03 11:40:29;;;;;;;370.10;72.27;;;10.90;99.90;;;;;;6257767;22;20421;-76
2021/11/03 11:43:02;;;;;;;390.97;85.83;;;11.00;99.90;;;;;;6271759;22;20456;-73
2021/11/03 11:45:32;;;;;;;324.30;82.93;;;11.00;99.90;;;;;;6245930;23;20816;-73
2021/11/03 11:48:04;;;;;;;292.00;78.60;;;11.00;99.90;;;;;;6271276;22;20484;-73
2021/11/03 11:50:39;;;;;;;267.83;65.97;;;11.00;99.90;;;;;;6247543;22;20433;-73
2021/11/03 11:53:23;;;;;;;311.80;73.63;;;11.00;99.90;;;;;;6245717;23;20811;-73
2021/11/03 11:56:14;;;;;;;304.23;95.33;;;11.10;99.90;;;;;;6245742;23;20444;-73
2021/11/03 11:58:43;;;;;;;364.60;79.50;;;11.00;99.90;;;;;;6257366;22;20418;-73
2021/11/03 12:01:26;;;;;;;354.73;79.63;;;11.10;99.90;;;;;;6257311;22;20468;-74
2021/11/03 12:04:34;;;;;;;339.47;85.77;;;11.10;99.90;;;;;;6245452;23;20421;-73
2021/11/03 12:07:24;;;;;;;363.90;92.07;;;11.10;99.90;;;;;;6245808;23;20409;-73
2021/11/03 12:10:32;;;;;;;454.63;91.63;;;11.10;99.90;;;;;;6245320;23;20831;-73
2021/11/03 12:13:31;;;;;;;299.27;73.63;;;11.10;99.90;;;;;;6241366;22;20911;-73
2021/11/03 12:16:16;;;;;;;397.23;79.67;;;11.10;99.90;;;;;;6257320;22;20392;-73
2021/11/03 12:18:54;;;;;;;357.77;83.23;;;11.10;99.90;;;;;;6271084;22;20401;-73
2021/11/03 12:21:57;;;;;;;322.90;92.30;;;11.10;99.90;;;;;;6257567;22;20501;-73
2021/11/03 12:24:38;;;;;;;372.00;100.33;;;11.10;99.90;;;;;;6247409;22;20410;-73
2021/11/03 12:27:37;;;;;;;295.13;69.57;;;11.10;99.90;;;;;;6270948;22;20413;-73
2021/11/03 12:30:36;;;;;;;322.07;86.17;;;11.10;99.90;;;;;;6245319;23;20433;-73
2021/11/03 12:33:06;;;;;;;355.30;101.47;;;11.10;99.90;;;;;;6257071;22;20900;-74
2021/11/03 12:36:11;;;;;;;329.40;94.20;;;11.10;99.90;;;;;;6257088;22;20468;-73
2021/11/03 12:38:55;;;;;;;370.07;86.70;;;11.20;99.90;;;;;;6245423;23;20405;-73
2021/11/03 12:41:31;;;;;;;399.00;100.70;;;11.20;99.90;;;;;;6246259;23;20434;-73
2021/11/03 12:44:02;;;;;;;342.67;96.13;;;11.20;99.90;;;;;;6245267;23;20772;-73
2021/11/03 12:46:33;;;;;;;339.83;95.40;;;11.20;99.90;;;;;;6257720;22;20378;-74
2021/11/03 12:49:02;;;;;;;360.03;73.23;;;11.20;99.90;;;;;;6245100;23;20426;-73
2021/11/03 12:51:32;;;;;;;371.63;116.70;;;11.20;99.90;;;;;;6245822;23;20922;-74
2021/11/03 12:54:13;;;;;;;378.03;108.30;;;11.20;99.90;;;;;;6270722;22;20402;-73
2021/11/03 12:56:54;;;;;;;429.63;130.80;;;11.20;99.90;;;;;;6245331;23;20417;-73